Main page
METAR-TAF:

METAR-TAF

Airports :

Stockholm Arlanda Airport

Stockholm-Arlanda, Sweden

latitude: 59-39N, longitude: 017-57E, elevation: 38 m

Current weather observation

The report was made 38 minutes ago, at 21:20 UTC
Wind 4 kt from the West
Temperature 3°C
Humidity 48%
Pressure 1019 hPa
Visibility 10 km or more
no clouds below 1500 m and no cumulonimbus

METAR: ESSA 092120Z 27004KT CAVOK 03/M07 Q1019 R01L/09//95 R01R/09//95 R08/09//95 NOSIG

Time: 23:58 (21:58 UTC)

Forecast

The report was made 4 hours and 28 minutes ago, at 17:30 UTC
Forecast valid from 09 at 18 UTC to 10 at 18 UTC
Wind 8 kt from the West/Northwest
Visibility 10 km or more
no clouds below 1500 m and no cumulonimbus
Temporary
from 10 at 10 UTC to 10 at 17 UTC
Scattered clouds at a height of 6000 ft, Towering cumulus.

TAF: ESSA 091730Z 0918/1018 30008KT CAVOK TEMPO 1010/1017 SCT060TCU

Weather observations and forecasts of more than 4000 airports (METAR and TAF reports).

The available stations are represented by yellow and red dots on the map.

Hover mouse over dot to see the name of the station.

Then click to see weather observations and forecasts.

To change the map : click on the green buttons with a black cross to zoom in, on the green button with a dash to zoom out, or on the green arrows for adjacent maps.


METAR-TAF: